Time,TemperatureF,DewpointF,PressureIn,WindDirection,WindDirectionDegrees,WindSpeedMPH,WindSpeedGustMPH,Humidity,HourlyPrecipIn,Conditions,Clouds,dailyrainin,SoftwareType,DateUTC
2013-05-03 00:01:00,29.3,20.0,30.36,NW,315,5.4,5.4,68,0.00,,,0.00,WUHU21623XXSP,2013-05-03 05:01:00,
2013-05-03 00:06:00,29.1,19.9,30.35,NNW,331,4.4,8.1,68,0.00,,,0.00,WUHU21623XXSP,2013-05-03 05:06:00,
2013-05-03 00:11:00,28.9,20.1,30.35,NNW,337,3.2,8.1,69,0.00,,,0.00,WUHU21623XXSP,2013-05-03 05:11:00,
2013-05-03 00:16:00,29.1,20.2,30.35,NNW,337,3.4,6.9,69,0.00,,,0.00,WUHU21623XXSP,2013-05-03 05:16:00,
2013-05-03 00:21:00,28.9,20.1,30.35,NNW,345,2.7,6.9,69,0.00,,,0.00,WUHU21623XXSP,2013-05-03 05:21:00,
2013-05-03 00:26:00,28.8,20.3,30.35,NW,315,6.3,6.3,70,0.00,,,0.00,WUHU21623XXSP,2013-05-03 05:26:00,
2013-05-03 00:31:00,28.8,20.3,30.34,NNW,337,2.5,6.3,70,0.00,,,0.00,WUHU21623XXSP,2013-05-03 05:31:00,
2013-05-03 00:36:00,28.6,20.1,30.34,NNW,335,2.5,6.3,70,0.00,,,0.00,WUHU21623XXSP,2013-05-03 05:36:00,
2013-05-03 00:41:00,28.6,20.1,30.33,NNE,22,4.5,5.1,70,0.00,,,0.00,WUHU21623XXSP,2013-05-03 05:41:00,
2013-05-03 00:46:00,28.8,20.3,30.34,NNE,14,2.5,5.4,70,0.00,,,0.00,WUHU21623XXSP,2013-05-03 05:46:00,
2013-05-03 00:51:00,28.4,19.9,30.33,NNW,337,4.0,5.4,70,0.00,,,0.00,WUHU21623XXSP,2013-05-03 05:51:00,
2013-05-03 00:56:00,28.2,20.1,30.33,NNE,22,5.8,5.8,71,0.00,,,0.00,WUHU21623XXSP,2013-05-03 05:56:00,
2013-05-03 01:01:00,28.2,20.1,30.34,North,0,2.9,5.8,71,0.00,,,0.00,WUHU21623XXSP,2013-05-03 06:01:00,
2013-05-03 01:06:00,28.2,20.1,30.33,North,352,3.0,9.6,71,0.00,,,0.00,WUHU21623XXSP,2013-05-03 06:06:00,
2013-05-03 01:11:00,28.2,20.1,30.33,NNW,337,3.1,9.6,71,0.00,,,0.00,WUHU21623XXSP,2013-05-03 06:11:00,
2013-05-03 01:16:00,28.2,20.1,30.33,NNW,337,2.9,6.7,71,0.00,,,0.00,WUHU21623XXSP,2013-05-03 06:16:00,
2013-05-03 01:21:00,28.2,20.4,30.33,NNW,340,1.9,5.4,72,0.00,,,0.00,WUHU21623XXSP,2013-05-03 06:21:00,
2013-05-03 01:26:00,28.0,20.2,30.32,North,0,2.1,4.9,72,0.00,,,0.00,WUHU21623XXSP,2013-05-03 06:26:00,
2013-05-03 01:31:00,28.0,20.2,30.32,NNE,13,3.0,5.4,72,0.00,,,0.00,WUHU21623XXSP,2013-05-03 06:31:00,
2013-05-03 01:36:00,28.0,20.2,30.32,NNW,337,1.3,5.4,72,0.00,,,0.00,WUHU21623XXSP,2013-05-03 06:36:00,
2013-05-03 01:40:00,27.7,19.8,30.32,NNW,337,2.9,3.1,72,0.00,,,0.00,WUHU21623XXSP,2013-05-03 06:40:00,
2013-05-03 01:45:00,27.7,20.1,30.32,NNW,337,0.8,4.5,73,0.00,,,0.00,WUHU21623XXSP,2013-05-03 06:45:00,
2013-05-03 01:50:00,27.5,20.0,30.32,NNW,337,0.6,4.5,73,0.00,,,0.00,WUHU21623XXSP,2013-05-03 06:50:00,
2013-05-03 01:55:00,27.5,20.0,30.32,NNW,337,0.8,2.7,73,0.00,,,0.00,WUHU21623XXSP,2013-05-03 06:55:00,
2013-05-03 02:00:00,27.5,20.0,30.32,NNW,337,1.0,2.5,73,0.00,,,0.00,WUHU21623XXSP,2013-05-03 07:00:00,
2013-05-03 02:05:00,27.1,19.9,30.32,NNW,337,0.4,2.7,74,0.00,,,0.00,WUHU21623XXSP,2013-05-03 07:05:00,
2013-05-03 02:10:00,27.1,19.6,30.31,NNE,22,1.6,3.8,73,0.00,,,0.00,WUHU21623XXSP,2013-05-03 07:10:00,
2013-05-03 02:15:00,27.1,19.9,30.31,NNE,22,0.0,3.8,74,0.00,,,0.00,WUHU21623XXSP,2013-05-03 07:15:00,
2013-05-03 02:20:00,27.1,19.9,30.31,North,0,0.5,2.0,74,0.00,,,0.00,WUHU21623XXSP,2013-05-03 07:20:00,
2013-05-03 02:25:00,27.3,20.1,30.31,NNW,340,1.4,4.9,74,0.00,,,0.00,WUHU21623XXSP,2013-05-03 07:25:00,
2013-05-03 02:30:00,27.1,20.2,30.31,North,0,2.0,4.9,75,0.00,,,0.00,WUHU21623XXSP,2013-05-03 07:30:00,
2013-05-03 02:35:00,27.3,20.1,30.31,North,0,1.6,4.5,74,0.00,,,0.00,WUHU21623XXSP,2013-05-03 07:35:00,
2013-05-03 02:40:00,27.3,20.1,30.31,North,0,1.3,3.8,74,0.00,,,0.00,WUHU21623XXSP,2013-05-03 07:40:00,
2013-05-03 02:45:00,27.3,20.1,30.31,North,0,1.7,4.0,74,0.00,,,0.00,WUHU21623XXSP,2013-05-03 07:45:00,
2013-05-03 02:50:00,27.7,20.4,30.30,NNW,337,3.6,4.0,74,0.00,,,0.00,WUHU21623XXSP,2013-05-03 07:50:00,
2013-05-03 02:55:00,27.5,20.3,30.30,NNW,347,2.8,4.0,74,0.00,,,0.00,WUHU21623XXSP,2013-05-03 07:55:00,
2013-05-03 03:00:00,27.3,20.1,30.30,NNW,337,3.6,4.0,74,0.00,,,0.00,WUHU21623XXSP,2013-05-03 08:00:00,
2013-05-03 03:05:00,27.1,19.9,30.30,NNW,337,2.7,3.6,74,0.00,,,0.00,WUHU21623XXSP,2013-05-03 08:05:00,
2013-05-03 03:10:00,27.1,19.9,30.30,WNW,292,2.2,4.7,74,0.00,,,0.00,WUHU21623XXSP,2013-05-03 08:10:00,
2013-05-03 03:15:00,26.8,19.5,30.30,NNW,337,2.9,4.7,74,0.00,,,0.00,WUHU21623XXSP,2013-05-03 08:15:00,
2013-05-03 03:20:00,26.8,19.5,30.29,NNW,337,2.9,3.8,74,0.00,,,0.00,WUHU21623XXSP,2013-05-03 08:20:00,
2013-05-03 03:25:00,26.8,19.5,30.29,NNW,337,4.9,4.9,74,0.00,,,0.00,WUHU21623XXSP,2013-05-03 08:25:00,
2013-05-03 03:30:00,26.8,19.5,30.29,North,0,2.3,4.9,74,0.00,,,0.00,WUHU21623XXSP,2013-05-03 08:30:00,
2013-05-03 03:35:00,26.8,19.5,30.29,NNW,337,1.9,4.7,74,0.00,,,0.00,WUHU21623XXSP,2013-05-03 08:35:00,
2013-05-03 03:40:00,26.8,19.5,30.29,NW,316,3.2,4.7,74,0.00,,,0.00,WUHU21623XXSP,2013-05-03 08:40:00,
2013-05-03 03:45:00,26.8,19.5,30.29,NW,315,1.8,4.7,74,0.00,,,0.00,WUHU21623XXSP,2013-05-03 08:45:00,
2013-05-03 03:50:00,26.8,19.5,30.29,NW,315,1.6,4.5,74,0.00,,,0.00,WUHU21623XXSP,2013-05-03 08:50:00,
2013-05-03 03:55:00,26.4,19.2,30.29,NNW,337,1.8,4.5,74,0.00,,,0.00,WUHU21623XXSP,2013-05-03 08:55:00,
2013-05-03 04:00:00,26.4,19.2,30.29,NNW,337,1.1,4.0,74,0.00,,,0.00,WUHU21623XXSP,2013-05-03 09:00:00,
2013-05-03 04:05:00,26.4,19.2,30.28,NNW,339,1.8,3.8,74,0.00,,,0.00,WUHU21623XXSP,2013-05-03 09:05:00,
2013-05-03 04:10:00,26.2,19.0,30.28,NNW,337,1.8,3.8,74,0.00,,,0.00,WUHU21623XXSP,2013-05-03 09:10:00,
2013-05-03 04:15:00,26.2,19.3,30.29,NNW,337,2.1,4.3,75,0.00,,,0.00,WUHU21623XXSP,2013-05-03 09:15:00,
2013-05-03 04:20:00,26.1,19.1,30.29,NNW,337,2.5,4.3,75,0.00,,,0.00,WUHU21623XXSP,2013-05-03 09:20:00,
2013-05-03 04:25:00,25.9,19.0,30.28,NNW,337,2.7,3.8,75,0.00,,,0.00,WUHU21623XXSP,2013-05-03 09:25:00,
2013-05-03 04:30:00,25.9,19.0,30.29,NNW,337,2.3,4.5,75,0.00,,,0.00,WUHU21623XXSP,2013-05-03 09:30:00,
2013-05-03 04:35:00,25.5,18.9,30.29,NNW,337,1.8,4.5,76,0.00,,,0.00,WUHU21623XXSP,2013-05-03 09:35:00,
2013-05-03 04:40:00,25.5,18.6,30.29,NNW,337,3.1,4.3,75,0.00,,,0.00,WUHU21623XXSP,2013-05-03 09:40:00,
2013-05-03 04:45:00,25.5,18.9,30.28,NNW,337,3.4,3.8,76,0.00,,,0.00,WUHU21623XXSP,2013-05-03 09:45:00,
2013-05-03 04:50:00,25.3,18.8,30.28,NW,315,3.1,4.0,76,0.00,,,0.00,WUHU21623XXSP,2013-05-03 09:50:00,
2013-05-03 04:55:00,25.3,18.8,30.29,NW,315,3.4,4.3,76,0.00,,,0.00,WUHU21623XXSP,2013-05-03 09:55:00,
2013-05-03 05:00:00,25.3,18.8,30.29,NW,323,3.5,7.4,76,0.00,,,0.00,WUHU21623XXSP,2013-05-03 10:00:00,
2013-05-03 05:05:00,25.3,18.8,30.29,NNW,337,3.8,7.4,76,0.00,,,0.00,WUHU21623XXSP,2013-05-03 10:05:00,
2013-05-03 05:10:00,25.3,18.8,30.28,NNW,330,3.6,4.9,76,0.00,,,0.00,WUHU21623XXSP,2013-05-03 10:10:00,
2013-05-03 05:15:00,25.3,18.8,30.29,NNW,337,4.3,4.9,76,0.00,,,0.00,WUHU21623XXSP,2013-05-03 10:15:00,
2013-05-03 05:20:00,25.2,18.6,30.29,NW,315,3.8,4.5,76,0.00,,,0.00,WUHU21623XXSP,2013-05-03 10:20:00,
2013-05-03 05:25:00,25.2,18.6,30.29,NNW,337,3.4,5.6,76,0.00,,,0.00,WUHU21623XXSP,2013-05-03 10:25:00,
2013-05-03 05:30:00,25.3,18.8,30.29,NW,315,4.3,5.6,76,0.00,,,0.00,WUHU21623XXSP,2013-05-03 10:30:00,
2013-05-03 05:35:00,25.2,18.6,30.29,NW,315,2.7,4.9,76,0.00,,,0.00,WUHU21623XXSP,2013-05-03 10:35:00,
2013-05-03 05:40:00,25.0,18.8,30.29,NW,315,2.7,4.5,77,0.00,,,0.00,WUHU21623XXSP,2013-05-03 10:40:00,
2013-05-03 05:45:00,25.0,18.8,30.29,NNW,337,3.3,5.1,77,0.00,,,0.00,WUHU21623XXSP,2013-05-03 10:45:00,
2013-05-03 05:50:00,25.0,18.8,30.28,NW,315,4.0,5.1,77,0.00,,,0.00,WUHU21623XXSP,2013-05-03 10:50:00,
2013-05-03 05:55:00,25.0,18.8,30.29,NNW,337,4.0,4.0,77,0.00,,,0.00,WUHU21623XXSP,2013-05-03 10:55:00,
2013-05-03 06:00:00,25.0,18.8,30.29,NNW,337,0.6,4.0,77,0.00,,,0.00,WUHU21623XXSP,2013-05-03 11:00:00,
2013-05-03 06:05:00,25.3,19.1,30.29,NW,315,2.9,4.0,77,0.00,,,0.00,WUHU21623XXSP,2013-05-03 11:05:00,
2013-05-03 06:10:00,25.5,19.3,30.28,NW,322,3.5,4.7,77,0.00,,,0.00,WUHU21623XXSP,2013-05-03 11:10:00,
2013-05-03 06:15:00,25.7,19.1,30.29,NNW,333,3.9,5.6,76,0.00,,,0.00,WUHU21623XXSP,2013-05-03 11:15:00,
2013-05-03 06:20:00,25.9,19.3,30.29,NNW,337,3.0,5.6,76,0.00,,,0.00,WUHU21623XXSP,2013-05-03 11:20:00,
2013-05-03 06:25:00,26.2,19.6,30.29,NW,318,3.4,5.4,76,0.00,,,0.00,WUHU21623XXSP,2013-05-03 11:25:00,
2013-05-03 06:30:00,26.4,19.5,30.29,NNW,337,5.6,5.6,75,0.00,,,0.00,WUHU21623XXSP,2013-05-03 11:30:00,
2013-05-03 06:35:00,26.6,19.4,30.28,North,349,4.3,6.5,74,0.00,,,0.00,WUHU21623XXSP,2013-05-03 11:35:00,
2013-05-03 06:40:00,27.0,20.0,30.28,NW,315,6.0,6.5,75,0.00,,,0.00,WUHU21623XXSP,2013-05-03 11:40:00,
2013-05-03 06:45:00,27.1,19.9,30.28,NNW,337,3.1,6.0,74,0.00,,,0.00,WUHU21623XXSP,2013-05-03 11:45:00,
2013-05-03 06:50:00,27.5,20.0,30.28,NNW,336,3.0,8.9,73,0.00,,,0.00,WUHU21623XXSP,2013-05-03 11:50:00,
2013-05-03 06:55:00,27.7,19.8,30.29,WNW,292,4.3,8.9,72,0.00,,,0.00,WUHU21623XXSP,2013-05-03 11:55:00,
2013-05-03 07:00:00,28.0,20.2,30.28,NNW,337,2.7,5.8,72,0.00,,,0.00,WUHU21623XXSP,2013-05-03 12:00:00,
2013-05-03 07:05:00,28.0,19.9,30.28,North,0,3.1,6.0,71,0.00,,,0.00,WUHU21623XXSP,2013-05-03 12:05:00,
2013-05-03 07:10:00,28.2,20.1,30.28,NNW,337,4.7,6.3,71,0.00,,,0.00,WUHU21623XXSP,2013-05-03 12:10:00,
2013-05-03 07:15:00,28.6,20.1,30.28,NE,37,2.0,8.5,70,0.00,,,0.00,WUHU21623XXSP,2013-05-03 12:15:00,
2013-05-03 07:20:00,28.8,20.3,30.28,NNW,337,2.9,8.5,70,0.00,,,0.00,WUHU21623XXSP,2013-05-03 12:20:00,
2013-05-03 07:25:00,28.9,20.1,30.28,North,355,3.6,7.4,69,0.00,,,0.00,WUHU21623XXSP,2013-05-03 12:25:00,
2013-05-03 07:30:00,28.2,19.4,30.27,North,2,6.0,9.4,69,0.00,,,0.00,WUHU21623XXSP,2013-05-03 12:30:00,
2013-05-03 07:35:00,28.2,19.8,30.28,NNE,22,2.4,9.4,70,0.00,,,0.00,WUHU21623XXSP,2013-05-03 12:35:00,
2013-05-03 07:40:00,28.4,19.6,30.27,NNE,14,4.4,9.2,69,0.00,,,0.00,WUHU21623XXSP,2013-05-03 12:40:00,
2013-05-03 07:45:00,28.6,19.7,30.27,NE,45,5.1,7.6,69,0.00,,,0.00,WUHU21623XXSP,2013-05-03 12:45:00,
2013-05-03 07:50:00,28.8,19.9,30.28,NNW,330,1.9,8.1,69,0.00,,,0.00,WUHU21623XXSP,2013-05-03 12:50:00,
2013-05-03 07:55:00,28.8,19.9,30.27,NNE,22,5.4,8.1,69,0.00,,,0.00,WUHU21623XXSP,2013-05-03 12:55:00,
2013-05-03 08:00:00,28.9,20.4,30.28,NNE,22,3.1,7.2,70,0.00,,,0.00,WUHU21623XXSP,2013-05-03 13:00:00,
2013-05-03 08:05:00,29.5,20.6,30.27,NNW,337,4.3,7.2,69,0.00,,,0.00,WUHU21623XXSP,2013-05-03 13:05:00,
2013-05-03 08:10:00,30.0,21.0,30.27,WNW,292,3.8,6.5,69,0.00,,,0.00,WUHU21623XXSP,2013-05-03 13:10:00,
2013-05-03 08:15:00,30.7,21.0,30.27,North,353,3.3,6.9,67,0.00,,,0.00,WUHU21623XXSP,2013-05-03 13:15:00,
2013-05-03 08:20:00,31.3,20.8,30.27,NNW,346,4.4,7.4,65,0.00,,,0.00,WUHU21623XXSP,2013-05-03 13:20:00,
2013-05-03 08:25:00,30.7,20.7,30.27,NNW,334,3.5,7.8,66,0.00,,,0.00,WUHU21623XXSP,2013-05-03 13:25:00,
2013-05-03 08:30:00,30.7,21.0,30.27,NNW,337,3.1,7.8,67,0.00,,,0.00,WUHU21623XXSP,2013-05-03 13:30:00,
2013-05-03 08:35:00,31.3,21.2,30.27,NNW,337,5.1,7.4,66,0.00,,,0.00,WUHU21623XXSP,2013-05-03 13:35:00,
2013-05-03 08:40:00,30.7,21.0,30.27,North,0,6.9,6.9,67,0.00,,,0.00,WUHU21623XXSP,2013-05-03 13:40:00,
2013-05-03 08:45:00,31.1,20.7,30.26,North,5,3.2,8.9,65,0.00,,,0.00,WUHU21623XXSP,2013-05-03 13:45:00,
2013-05-03 08:50:00,31.3,20.5,30.26,North,8,2.9,8.9,64,0.00,,,0.00,WUHU21623XXSP,2013-05-03 13:50:00,
2013-05-03 08:55:00,31.8,21.0,30.26,NW,320,2.1,6.9,64,0.00,,,0.00,WUHU21623XXSP,2013-05-03 13:55:00,
2013-05-03 09:00:00,31.6,20.8,30.26,WNW,292,2.2,6.7,64,0.00,,,0.00,WUHU21623XXSP,2013-05-03 14:00:00,
2013-05-03 09:05:00,31.1,20.3,30.26,NNE,18,2.7,6.7,64,0.00,,,0.00,WUHU21623XXSP,2013-05-03 14:05:00,
2013-05-03 09:10:00,31.8,21.0,30.25,North,356,5.2,7.2,64,0.00,,,0.00,WUHU21623XXSP,2013-05-03 14:10:00,
2013-05-03 09:15:00,31.3,20.5,30.25,NE,36,1.8,7.2,64,0.00,,,0.00,WUHU21623XXSP,2013-05-03 14:15:00,
2013-05-03 09:20:00,31.3,20.8,30.26,NNE,22,4.5,5.8,65,0.00,,,0.00,WUHU21623XXSP,2013-05-03 14:20:00,
2013-05-03 09:25:00,31.8,21.4,30.26,North,3,1.9,5.1,65,0.00,,,0.00,WUHU21623XXSP,2013-05-03 14:25:00,
2013-05-03 09:30:00,32.4,21.5,30.26,NNE,14,3.5,6.3,64,0.00,,,0.00,WUHU21623XXSP,2013-05-03 14:30:00,
2013-05-03 09:35:00,33.6,22.3,30.26,NNW,337,2.9,6.3,63,0.00,,,0.00,WUHU21623XXSP,2013-05-03 14:35:00,
2013-05-03 09:40:00,34.0,21.9,30.25,NNW,337,6.3,8.1,61,0.00,,,0.00,WUHU21623XXSP,2013-05-03 14:40:00,
2013-05-03 09:45:00,32.7,21.1,30.25,North,4,2.4,8.1,62,0.00,,,0.00,WUHU21623XXSP,2013-05-03 14:45:00,
2013-05-03 09:50:00,33.6,21.9,30.25,NE,45,5.1,7.4,62,0.00,,,0.00,WUHU21623XXSP,2013-05-03 14:50:00,
2013-05-03 09:55:00,34.0,22.3,30.25,NNW,337,2.8,7.4,62,0.00,,,0.00,WUHU21623XXSP,2013-05-03 14:55:00,
2013-05-03 10:00:00,33.6,21.6,30.25,NNW,337,5.8,9.2,61,0.00,,,0.00,WUHU21623XXSP,2013-05-03 15:00:00,
2013-05-03 10:05:00,34.5,22.1,30.25,NW,317,4.6,9.2,60,0.00,,,0.00,WUHU21623XXSP,2013-05-03 15:05:00,
2013-05-03 10:10:00,35.2,22.0,30.24,NNE,22,4.0,8.5,58,0.00,,,0.00,WUHU21623XXSP,2013-05-03 15:10:00,
2013-05-03 10:15:00,34.7,22.3,30.24,NNW,334,2.9,8.5,60,0.00,,,0.00,WUHU21623XXSP,2013-05-03 15:15:00,
2013-05-03 10:20:00,34.3,21.5,30.24,NE,45,6.5,7.4,59,0.00,,,0.00,WUHU21623XXSP,2013-05-03 15:20:00,
2013-05-03 10:25:00,34.9,22.0,30.24,NNW,337,4.0,7.4,59,0.00,,,0.00,WUHU21623XXSP,2013-05-03 15:25:00,
2013-05-03 10:30:00,35.4,22.1,30.24,North,0,5.4,6.7,58,0.00,,,0.00,WUHU21623XXSP,2013-05-03 15:30:00,
2013-05-03 10:35:00,36.3,22.5,30.24,NNW,339,3.5,6.7,57,0.00,,,0.00,WUHU21623XXSP,2013-05-03 15:35:00,
2013-05-03 10:40:00,36.5,22.7,30.24,NNW,336,4.9,7.2,57,0.00,,,0.00,WUHU21623XXSP,2013-05-03 15:40:00,
2013-05-03 10:45:00,36.3,22.1,30.24,NNE,24,4.3,9.4,56,0.00,,,0.00,WUHU21623XXSP,2013-05-03 15:45:00,
2013-05-03 10:50:00,36.0,22.2,30.24,NNE,33,4.2,9.4,57,0.00,,,0.00,WUHU21623XXSP,2013-05-03 15:50:00,
2013-05-03 10:55:00,37.2,23.3,30.24,NE,36,1.4,7.2,57,0.00,,,0.00,WUHU21623XXSP,2013-05-03 15:55:00,
2013-05-03 11:00:00,37.6,23.2,30.24,North,0,2.7,8.9,56,0.00,,,0.00,WUHU21623XXSP,2013-05-03 16:00:00,
2013-05-03 11:05:00,38.1,22.9,30.23,NE,45,2.0,8.9,54,0.00,,,0.00,WUHU21623XXSP,2013-05-03 16:05:00,
2013-05-03 11:10:00,36.5,22.7,30.23,North,0,6.5,7.8,57,0.00,,,0.00,WUHU21623XXSP,2013-05-03 16:10:00,
2013-05-03 11:15:00,37.2,23.3,30.23,NW,315,3.6,7.8,57,0.00,,,0.00,WUHU21623XXSP,2013-05-03 16:15:00,
2013-05-03 11:20:00,37.2,22.9,30.23,NNE,16,2.3,7.8,56,0.00,,,0.00,WUHU21623XXSP,2013-05-03 16:20:00,
2013-05-03 11:25:00,37.0,23.2,30.23,NNW,337,2.2,7.6,57,0.00,,,0.00,WUHU21623XXSP,2013-05-03 16:25:00,
2013-05-03 11:30:00,37.4,23.5,30.23,North,0,6.9,6.9,57,0.00,,,0.00,WUHU21623XXSP,2013-05-03 16:30:00,
2013-05-03 11:35:00,37.2,23.3,30.23,NNE,22,3.8,6.9,57,0.00,,,0.00,WUHU21623XXSP,2013-05-03 16:35:00,
2013-05-03 11:40:00,36.3,23.0,30.23,North,0,1.4,7.2,58,0.00,,,0.00,WUHU21623XXSP,2013-05-03 16:40:00,
2013-05-03 11:45:00,37.2,23.3,30.22,NNW,337,6.3,8.1,57,0.00,,,0.00,WUHU21623XXSP,2013-05-03 16:45:00,
2013-05-03 11:50:00,36.9,23.0,30.23,NNW,335,1.8,8.1,57,0.00,,,0.00,WUHU21623XXSP,2013-05-03 16:50:00,
2013-05-03 11:55:00,36.9,23.0,30.23,NNW,337,4.5,6.0,57,0.00,,,0.00,WUHU21623XXSP,2013-05-03 16:55:00,
2013-05-03 12:00:00,36.3,22.5,30.23,NNW,330,1.6,5.6,57,0.00,,,0.00,WUHU21623XXSP,2013-05-03 17:00:00,
2013-05-03 12:05:00,36.1,23.2,30.22,NW,320,2.4,5.6,59,0.00,,,0.00,WUHU21623XXSP,2013-05-03 17:05:00,
2013-05-03 12:10:00,35.8,22.9,30.22,NE,45,4.3,4.3,59,0.00,,,0.00,WUHU21623XXSP,2013-05-03 17:10:00,
2013-05-03 12:15:00,36.0,22.6,30.22,NNW,348,3.2,6.9,58,0.00,,,0.00,WUHU21623XXSP,2013-05-03 17:15:00,
2013-05-03 12:20:00,36.1,23.2,30.22,NNW,337,4.0,6.9,59,0.00,,,0.00,WUHU21623XXSP,2013-05-03 17:20:00,
2013-05-03 12:25:00,36.0,23.1,30.22,NNE,27,2.1,8.1,59,0.00,,,0.00,WUHU21623XXSP,2013-05-03 17:25:00,
2013-05-03 12:30:00,36.0,22.6,30.22,NE,45,2.7,8.1,58,0.00,,,0.00,WUHU21623XXSP,2013-05-03 17:30:00,
2013-05-03 12:35:00,36.5,23.1,30.21,North,352,4.0,7.4,58,0.00,,,0.00,WUHU21623XXSP,2013-05-03 17:35:00,
2013-05-03 12:40:00,36.9,23.4,30.21,NNW,338,5.8,8.5,58,0.00,,,0.00,WUHU21623XXSP,2013-05-03 17:40:00,
2013-05-03 12:45:00,37.2,23.8,30.21,NNE,22,4.9,8.5,58,0.00,,,0.00,WUHU21623XXSP,2013-05-03 17:45:00,
2013-05-03 12:50:00,37.2,23.3,30.21,NNW,335,2.3,6.3,57,0.00,,,0.00,WUHU21623XXSP,2013-05-03 17:50:00,
2013-05-03 12:55:00,37.6,23.7,30.21,North,0,6.3,7.4,57,0.00,,,0.00,WUHU21623XXSP,2013-05-03 17:55:00,
2013-05-03 13:00:00,37.2,23.8,30.21,NNW,334,6.2,9.8,58,0.00,,,0.00,WUHU21623XXSP,2013-05-03 18:00:00,
2013-05-03 13:05:00,37.2,23.8,30.21,North,0,5.4,9.8,58,0.00,,,0.00,WUHU21623XXSP,2013-05-03 18:05:00,
2013-05-03 13:10:00,37.2,23.8,30.21,North,0,4.5,7.2,58,0.00,,,0.00,WUHU21623XXSP,2013-05-03 18:10:00,
2013-05-03 13:15:00,36.3,23.4,30.20,North,3,2.1,8.5,59,0.00,,,0.00,WUHU21623XXSP,2013-05-03 18:15:00,
2013-05-03 13:20:00,36.0,23.1,30.20,NE,36,4.4,8.5,59,0.00,,,0.00,WUHU21623XXSP,2013-05-03 18:20:00,
2013-05-03 13:25:00,36.3,23.4,30.20,NNE,22,5.1,6.9,59,0.00,,,0.00,WUHU21623XXSP,2013-05-03 18:25:00,
2013-05-03 13:30:00,36.7,23.7,30.20,North,0,2.4,7.2,59,0.00,,,0.00,WUHU21623XXSP,2013-05-03 18:30:00,
2013-05-03 13:35:00,37.0,24.0,30.20,North,0,4.0,7.2,59,0.00,,,0.00,WUHU21623XXSP,2013-05-03 18:35:00,
2013-05-03 13:40:00,37.2,24.6,30.20,WNW,292,4.7,6.3,60,0.00,,,0.00,WUHU21623XXSP,2013-05-03 18:40:00,
2013-05-03 13:45:00,36.9,24.7,30.20,NNE,33,1.2,7.4,61,0.00,,,0.00,WUHU21623XXSP,2013-05-03 18:45:00,
2013-05-03 13:50:00,35.4,25.2,30.20,NE,40,1.3,7.4,66,0.00,,,0.00,WUHU21623XXSP,2013-05-03 18:50:00,
2013-05-03 13:55:00,35.2,26.4,30.20,NE,45,4.7,6.5,70,0.00,,,0.00,WUHU21623XXSP,2013-05-03 18:55:00,
2013-05-03 14:00:00,35.4,26.2,30.20,North,9,3.3,6.5,69,0.00,,,0.00,WUHU21623XXSP,2013-05-03 19:00:00,
2013-05-03 14:05:00,35.2,26.4,30.20,NNE,12,2.8,6.0,70,0.00,,,0.00,WUHU21623XXSP,2013-05-03 19:05:00,
2013-05-03 14:10:00,35.4,26.9,30.19,North,349,2.8,5.1,71,0.00,,,0.00,WUHU21623XXSP,2013-05-03 19:10:00,
2013-05-03 14:15:00,35.4,26.9,30.20,North,354,3.1,6.7,71,0.00,,,0.00,WUHU21623XXSP,2013-05-03 19:15:00,
2013-05-03 14:20:00,35.2,26.7,30.20,NNE,12,2.4,6.7,71,0.00,,,0.00,WUHU21623XXSP,2013-05-03 19:20:00,
2013-05-03 14:25:00,35.8,27.9,30.19,NW,318,3.2,6.7,73,0.00,,,0.00,WUHU21623XXSP,2013-05-03 19:25:00,
2013-05-03 14:30:00,35.4,27.6,30.19,North,350,3.2,7.2,73,0.00,,,0.00,WUHU21623XXSP,2013-05-03 19:30:00,
2013-05-03 14:35:00,35.8,27.6,30.19,NNW,337,4.0,7.2,72,0.00,,,0.00,WUHU21623XXSP,2013-05-03 19:35:00,
2013-05-03 14:40:00,35.2,27.1,30.19,NE,45,4.0,6.5,72,0.00,,,0.00,WUHU21623XXSP,2013-05-03 19:40:00,
2013-05-03 14:45:00,34.9,27.0,30.19,NNE,15,1.2,6.5,73,0.00,,,0.00,WUHU21623XXSP,2013-05-03 19:45:00,
2013-05-03 14:50:00,34.7,27.2,30.19,NNE,25,2.2,4.9,74,0.00,,,0.00,WUHU21623XXSP,2013-05-03 19:50:00,
2013-05-03 14:55:00,34.9,27.4,30.19,NNE,22,2.5,6.3,74,0.00,,,0.00,WUHU21623XXSP,2013-05-03 19:55:00,
2013-05-03 15:00:00,34.3,26.5,30.19,North,0,3.1,6.9,73,0.00,,,0.00,WUHU21623XXSP,2013-05-03 20:00:00,
2013-05-03 15:05:00,34.7,27.2,30.19,NNE,22,4.3,6.9,74,0.00,,,0.00,WUHU21623XXSP,2013-05-03 20:05:00,
2013-05-03 15:10:00,34.3,26.5,30.19,North,354,3.6,8.3,73,0.00,,,0.00,WUHU21623XXSP,2013-05-03 20:10:00,
2013-05-03 15:15:00,34.3,26.8,30.19,WNW,292,6.0,8.3,74,0.00,,,0.00,WUHU21623XXSP,2013-05-03 20:15:00,
2013-05-03 15:20:00,34.9,26.7,30.19,North,0,2.5,6.0,72,0.00,,,0.00,WUHU21623XXSP,2013-05-03 20:20:00,
2013-05-03 15:25:00,34.9,27.0,30.18,NW,315,5.1,5.8,73,0.00,,,0.00,WUHU21623XXSP,2013-05-03 20:25:00,
2013-05-03 15:30:00,34.3,26.5,30.18,WNW,302,4.8,7.8,73,0.00,,,0.00,WUHU21623XXSP,2013-05-03 20:30:00,
2013-05-03 15:34:00,34.3,26.5,30.18,NNE,22,3.4,7.8,73,0.00,,,0.00,WUHU21623XXSP,2013-05-03 20:34:00,
2013-05-03 15:39:00,34.3,27.5,30.18,NNE,26,1.6,5.8,76,0.00,,,0.00,WUHU21623XXSP,2013-05-03 20:39:00,
2013-05-03 15:45:00,34.7,27.8,30.18,NNW,337,0.8,4.7,76,0.00,,,0.00,WUHU21623XXSP,2013-05-03 20:45:00,
2013-05-03 15:50:00,34.5,27.3,30.18,ENE,67,3.8,6.9,75,0.00,,,0.00,WUHU21623XXSP,2013-05-03 20:50:00,
2013-05-03 15:54:00,34.3,27.5,30.18,North,1,1.8,6.9,76,0.00,,,0.00,WUHU21623XXSP,2013-05-03 20:54:00,
2013-05-03 15:59:00,34.3,27.1,30.17,North,356,3.6,6.5,75,0.00,,,0.00,WUHU21623XXSP,2013-05-03 20:59:00,
2013-05-03 16:04:00,34.9,27.7,30.17,North,350,3.5,5.1,75,0.00,,,0.00,WUHU21623XXSP,2013-05-03 21:04:00,
2013-05-03 16:09:00,34.9,27.7,30.17,WNW,292,1.3,5.1,75,0.00,,,0.00,WUHU21623XXSP,2013-05-03 21:09:00,
2013-05-03 16:14:00,35.2,27.7,30.17,North,8,4.1,11.4,74,0.00,,,0.00,WUHU21623XXSP,2013-05-03 21:14:00,
2013-05-03 16:19:00,34.9,27.4,30.17,North,3,3.1,11.4,74,0.00,,,0.00,WUHU21623XXSP,2013-05-03 21:19:00,
2013-05-03 16:24:00,34.3,26.8,30.17,NNE,22,2.0,8.1,74,0.00,,,0.00,WUHU21623XXSP,2013-05-03 21:24:00,
2013-05-03 16:29:00,34.5,27.0,30.17,NNW,337,3.8,8.1,74,0.00,,,0.00,WUHU21623XXSP,2013-05-03 21:29:00,
2013-05-03 16:35:00,34.5,26.7,30.17,North,358,3.8,6.0,73,0.00,,,0.00,WUHU21623XXSP,2013-05-03 21:35:00,
2013-05-03 16:39:00,34.9,27.4,30.16,NNW,337,4.7,6.3,74,0.00,,,0.00,WUHU21623XXSP,2013-05-03 21:39:00,
2013-05-03 16:44:00,34.9,27.7,30.17,North,349,3.4,7.2,75,0.00,,,0.00,WUHU21623XXSP,2013-05-03 21:44:00,
2013-05-03 16:49:00,34.9,27.7,30.16,NNE,22,2.9,7.2,75,0.00,,,0.00,WUHU21623XXSP,2013-05-03 21:49:00,
2013-05-03 16:54:00,34.3,27.1,30.16,North,0,4.5,4.5,75,0.00,,,0.00,WUHU21623XXSP,2013-05-03 21:54:00,
2013-05-03 16:59:00,34.3,27.5,30.16,NNW,337,2.7,4.5,76,0.00,,,0.00,WUHU21623XXSP,2013-05-03 21:59:00,
2013-05-03 17:04:00,34.3,27.8,30.16,North,0,0.9,7.2,77,0.00,,,0.00,WUHU21623XXSP,2013-05-03 22:04:00,
2013-05-03 17:09:00,34.2,27.6,30.16,NE,45,0.6,7.2,77,0.00,,,0.00,WUHU21623XXSP,2013-05-03 22:09:00,
2013-05-03 17:14:00,34.0,28.4,30.16,NNE,22,3.8,3.8,80,0.00,,,0.00,WUHU21623XXSP,2013-05-03 22:14:00,
2013-05-03 17:19:00,33.6,28.1,30.16,North,0,1.6,4.7,80,0.00,,,0.00,WUHU21623XXSP,2013-05-03 22:19:00,
2013-05-03 17:24:00,33.6,28.1,30.16,North,9,2.1,5.8,80,0.00,,,0.00,WUHU21623XXSP,2013-05-03 22:24:00,
2013-05-03 17:29:00,33.6,28.3,30.16,NNE,22,1.3,5.8,81,0.00,,,0.00,WUHU21623XXSP,2013-05-03 22:29:00,
2013-05-03 17:34:00,33.4,28.2,30.16,NNE,22,0.0,3.4,81,0.00,,,0.00,WUHU21623XXSP,2013-05-03 22:34:00,
2013-05-03 17:39:00,33.3,28.0,30.16,NNE,22,0.6,4.0,81,0.00,,,0.00,WUHU21623XXSP,2013-05-03 22:39:00,
2013-05-03 17:44:00,33.4,28.5,30.17,NNE,22,0.1,4.0,82,0.00,,,0.00,WUHU21623XXSP,2013-05-03 22:44:00,
2013-05-03 17:49:00,33.4,28.5,30.16,NE,45,3.1,3.6,82,0.00,,,0.00,WUHU21623XXSP,2013-05-03 22:49:00,
2013-05-03 17:54:00,33.1,28.1,30.17,NE,45,4.5,4.5,82,0.00,,,0.00,WUHU21623XXSP,2013-05-03 22:54:00,
2013-05-03 17:59:00,32.9,28.0,30.17,NNE,22,1.3,4.5,82,0.00,,,0.00,WUHU21623XXSP,2013-05-03 22:59:00,
2013-05-03 18:04:00,32.9,28.0,30.17,NE,45,1.1,3.4,82,0.00,,,0.00,WUHU21623XXSP,2013-05-03 23:04:00,
2013-05-03 18:09:00,32.7,28.1,30.17,North,8,0.4,2.9,83,0.00,,,0.00,WUHU21623XXSP,2013-05-03 23:09:00,
2013-05-03 18:14:00,32.5,27.9,30.17,NNE,22,0.5,2.9,83,0.00,,,0.00,WUHU21623XXSP,2013-05-03 23:14:00,
2013-05-03 18:19:00,32.4,27.8,30.17,NNE,31,0.6,2.5,83,0.00,,,0.00,WUHU21623XXSP,2013-05-03 23:19:00,
2013-05-03 18:24:00,32.4,28.1,30.17,NNW,346,1.8,6.7,84,0.00,,,0.00,WUHU21623XXSP,2013-05-03 23:24:00,
2013-05-03 18:29:00,32.2,27.9,30.17,NE,45,2.0,6.7,84,0.00,,,0.00,WUHU21623XXSP,2013-05-03 23:29:00,
2013-05-03 18:34:00,32.2,27.9,30.17,NE,36,0.6,4.0,84,0.00,,,0.00,WUHU21623XXSP,2013-05-03 23:34:00,
2013-05-03 18:39:00,31.8,27.6,30.18,NNE,22,0.0,5.6,84,0.00,,,0.00,WUHU21623XXSP,2013-05-03 23:39:00,
2013-05-03 18:44:00,31.8,27.6,30.18,NNE,27,1.1,5.6,84,0.00,,,0.00,WUHU21623XXSP,2013-05-03 23:44:00,
2013-05-03 18:49:00,31.8,27.6,30.17,North,0,2.9,3.8,84,0.00,,,0.00,WUHU21623XXSP,2013-05-03 23:49:00,
2013-05-03 18:54:00,31.8,27.6,30.17,North,0,1.1,3.6,84,0.00,,,0.00,WUHU21623XXSP,2013-05-03 23:54:00,
2013-05-03 18:59:00,31.8,27.9,30.17,NNE,22,0.6,3.6,85,0.00,,,0.00,WUHU21623XXSP,2013-05-03 23:59:00,
2013-05-03 19:04:00,31.8,27.9,30.17,North,4,0.5,2.9,85,0.00,,,0.00,WUHU21623XXSP,2013-05-04 00:04:00,
2013-05-03 19:09:00,31.8,27.9,30.17,NNE,15,1.4,5.1,85,0.00,,,0.00,WUHU21623XXSP,2013-05-04 00:09:00,
2013-05-03 19:14:00,31.8,27.9,30.17,NNE,15,0.5,5.1,85,0.03,,,0.03,WUHU21623XXSP,2013-05-04 00:14:00,
2013-05-03 19:19:00,31.8,27.9,30.17,NNE,22,5.4,5.4,85,0.03,,,0.03,WUHU21623XXSP,2013-05-04 00:19:00,
2013-05-03 19:24:00,31.8,27.9,30.17,NNE,22,0.1,5.4,85,0.03,,,0.03,WUHU21623XXSP,2013-05-04 00:24:00,
2013-05-03 19:29:00,31.8,27.9,30.17,North,0,0.2,4.5,85,0.03,,,0.03,WUHU21623XXSP,2013-05-04 00:29:00,
2013-05-03 19:34:00,31.8,27.9,30.17,North,0,0.1,4.5,85,0.03,,,0.03,WUHU21623XXSP,2013-05-04 00:34:00,
2013-05-03 19:39:00,31.8,28.1,30.17,North,0,0.0,0.4,86,0.03,,,0.03,WUHU21623XXSP,2013-05-04 00:39:00,
2013-05-03 19:44:00,31.6,28.0,30.17,North,0,0.0,0.9,86,0.03,,,0.03,WUHU21623XXSP,2013-05-04 00:44:00,
2013-05-03 19:49:00,31.6,28.0,30.17,NNE,22,0.0,0.9,86,0.03,,,0.03,WUHU21623XXSP,2013-05-04 00:49:00,
2013-05-03 19:54:00,31.6,28.0,30.17,North,0,0.2,1.3,86,0.03,,,0.03,WUHU21623XXSP,2013-05-04 00:54:00,
2013-05-03 19:59:00,31.8,28.1,30.17,NNE,22,0.0,1.3,86,0.03,,,0.03,WUHU21623XXSP,2013-05-04 00:59:00,
2013-05-03 20:04:00,31.6,28.0,30.17,ENE,67,0.0,2.0,86,0.03,,,0.03,WUHU21623XXSP,2013-05-04 01:04:00,
2013-05-03 20:09:00,31.6,28.0,30.16,ENE,67,0.0,2.0,86,0.03,,,0.03,WUHU21623XXSP,2013-05-04 01:09:00,
2013-05-03 20:14:00,31.6,28.0,30.16,NE,45,0.5,3.6,86,0.00,,,0.03,WUHU21623XXSP,2013-05-04 01:14:00,
2013-05-03 20:19:00,31.3,27.6,30.17,NE,45,0.0,5.8,86,0.00,,,0.03,WUHU21623XXSP,2013-05-04 01:19:00,
2013-05-03 20:24:00,31.6,28.0,30.16,NE,45,0.0,5.8,86,0.00,,,0.03,WUHU21623XXSP,2013-05-04 01:24:00,
2013-05-03 20:29:00,31.5,27.8,30.17,NNE,22,0.8,3.1,86,0.00,,,0.03,WUHU21623XXSP,2013-05-04 01:29:00,
2013-05-03 20:34:00,31.3,27.6,30.17,NNE,22,0.2,3.1,86,0.00,,,0.03,WUHU21623XXSP,2013-05-04 01:34:00,
2013-05-03 20:39:00,31.3,27.6,30.17,NE,45,0.2,4.0,86,0.00,,,0.03,WUHU21623XXSP,2013-05-04 01:39:00,
2013-05-03 20:44:00,31.3,27.6,30.17,NE,45,0.0,4.0,86,0.00,,,0.03,WUHU21623XXSP,2013-05-04 01:44:00,
2013-05-03 20:49:00,31.3,27.6,30.17,NE,45,0.5,3.6,86,0.00,,,0.03,WUHU21623XXSP,2013-05-04 01:49:00,
2013-05-03 20:54:00,31.3,27.6,30.17,NE,45,0.1,3.6,86,0.00,,,0.03,WUHU21623XXSP,2013-05-04 01:54:00,
2013-05-03 20:59:00,31.3,27.6,30.17,NE,45,0.0,2.0,86,0.00,,,0.03,WUHU21623XXSP,2013-05-04 01:59:00,
2013-05-03 21:04:00,31.1,27.4,30.17,NE,45,1.1,3.4,86,0.00,,,0.03,WUHU21623XXSP,2013-05-04 02:04:00,
2013-05-03 21:09:00,31.1,27.4,30.17,NE,45,1.4,4.3,86,0.00,,,0.03,WUHU21623XXSP,2013-05-04 02:09:00,
2013-05-03 21:14:00,31.1,27.4,30.17,NE,45,1.6,4.3,86,0.00,,,0.03,WUHU21623XXSP,2013-05-04 02:14:00,
2013-05-03 21:19:00,30.9,27.2,30.17,NE,45,1.6,3.6,86,0.00,,,0.03,WUHU21623XXSP,2013-05-04 02:19:00,
2013-05-03 21:24:00,30.9,27.2,30.17,NE,45,2.2,3.6,86,0.00,,,0.03,WUHU21623XXSP,2013-05-04 02:24:00,
2013-05-03 21:29:00,30.9,27.2,30.17,NE,45,1.3,5.6,86,0.00,,,0.03,WUHU21623XXSP,2013-05-04 02:29:00,
2013-05-03 21:34:00,31.1,27.4,30.17,NE,45,3.1,5.6,86,0.00,,,0.03,WUHU21623XXSP,2013-05-04 02:34:00,
2013-05-03 21:39:00,31.1,27.4,30.17,NE,45,0.6,5.6,86,0.00,,,0.03,WUHU21623XXSP,2013-05-04 02:39:00,
2013-05-03 21:44:00,30.9,27.2,30.17,NE,45,0.3,4.5,86,0.00,,,0.03,WUHU21623XXSP,2013-05-04 02:44:00,
2013-05-03 21:49:00,30.9,27.2,30.16,NE,45,0.0,4.5,86,0.00,,,0.03,WUHU21623XXSP,2013-05-04 02:49:00,
2013-05-03 21:54:00,30.9,27.2,30.16,NE,45,1.4,3.8,86,0.00,,,0.03,WUHU21623XXSP,2013-05-04 02:54:00,
2013-05-03 21:59:00,30.9,27.2,30.16,NE,45,0.0,3.8,86,0.00,,,0.03,WUHU21623XXSP,2013-05-04 02:59:00,
2013-05-03 22:04:00,30.9,27.2,30.16,NE,45,2.2,2.7,86,0.00,,,0.03,WUHU21623XXSP,2013-05-04 03:04:00,
2013-05-03 22:09:00,30.9,27.2,30.16,NE,45,0.9,3.4,86,0.00,,,0.03,WUHU21623XXSP,2013-05-04 03:09:00,
2013-05-03 22:14:00,30.9,27.2,30.15,NE,45,0.1,3.4,86,0.00,,,0.03,WUHU21623XXSP,2013-05-04 03:14:00,
2013-05-03 22:19:00,30.7,27.1,30.16,NE,45,2.7,4.3,86,0.00,,,0.03,WUHU21623XXSP,2013-05-04 03:19:00,
2013-05-03 22:24:00,30.9,27.2,30.15,NE,45,0.2,4.3,86,0.00,,,0.03,WUHU21623XXSP,2013-05-04 03:24:00,
2013-05-03 22:29:00,30.9,27.2,30.16,NE,45,1.3,4.3,86,0.00,,,0.03,WUHU21623XXSP,2013-05-04 03:29:00,
2013-05-03 22:34:00,30.9,27.2,30.15,NE,45,4.7,5.8,86,0.00,,,0.03,WUHU21623XXSP,2013-05-04 03:34:00,
2013-05-03 22:39:00,30.9,27.2,30.15,NE,45,0.0,5.8,86,0.00,,,0.03,WUHU21623XXSP,2013-05-04 03:39:00,
2013-05-03 22:44:00,30.9,27.2,30.15,NE,45,0.0,4.7,86,0.00,,,0.03,WUHU21623XXSP,2013-05-04 03:44:00,
2013-05-03 22:49:00,30.7,27.1,30.14,NE,45,0.4,1.3,86,0.00,,,0.03,WUHU21623XXSP,2013-05-04 03:49:00,
2013-05-03 22:54:00,30.7,27.1,30.15,NE,45,0.0,3.8,86,0.00,,,0.03,WUHU21623XXSP,2013-05-04 03:54:00,
2013-05-03 22:59:00,30.7,27.1,30.14,NE,45,0.0,3.8,86,0.00,,,0.03,WUHU21623XXSP,2013-05-04 03:59:00,
2013-05-03 23:01:00,30.7,27.1,30.14,NE,45,0.0,1.6,86,0.00,,,0.03,WUHU21623XXSP,2013-05-04 04:01:00,
2013-05-03 23:06:00,30.7,27.1,30.14,NE,45,0.0,0.0,86,0.00,,,0.03,WUHU21623XXSP,2013-05-04 04:06:00,
2013-05-03 23:11:00,30.7,27.1,30.14,NE,45,0.0,0.0,86,0.00,,,0.03,WUHU21623XXSP,2013-05-04 04:11:00,
2013-05-03 23:16:00,30.7,27.1,30.14,NE,45,0.0,0.0,86,0.00,,,0.03,WUHU21623XXSP,2013-05-04 04:16:00,
2013-05-03 23:21:00,30.9,27.2,30.14,NE,45,0.0,0.0,86,0.00,,,0.03,WUHU21623XXSP,2013-05-04 04:21:00,
2013-05-03 23:26:00,30.7,27.1,30.14,NE,45,0.0,0.0,86,0.00,,,0.03,WUHU21623XXSP,2013-05-04 04:26:00,
2013-05-03 23:31:00,30.6,26.9,30.14,NE,45,0.0,0.0,86,0.00,,,0.03,WUHU21623XXSP,2013-05-04 04:31:00,
2013-05-03 23:36:00,30.4,26.7,30.14,NE,45,0.0,0.0,86,0.00,,,0.03,WUHU21623XXSP,2013-05-04 04:36:00,
2013-05-03 23:41:00,30.6,26.9,30.14,NE,45,0.0,0.0,86,0.00,,,0.03,WUHU21623XXSP,2013-05-04 04:41:00,
2013-05-03 23:46:00,30.4,26.7,30.14,NE,45,0.0,0.0,86,0.00,,,0.03,WUHU21623XXSP,2013-05-04 04:46:00,
2013-05-03 23:51:00,30.4,26.7,30.13,NE,45,0.0,0.0,86,0.00,,,0.03,WUHU21623XXSP,2013-05-04 04:51:00,
2013-05-03 23:56:00,30.4,26.7,30.14,NE,45,0.0,0.0,86,0.00,,,0.03,WUHU21623XXSP,2013-05-04 04:56:00,